Dole Ecuador — C6FX6 — position and weather

sailwx.info

Track history (hours):
 
Tides and Currents Weather Stations Pressure Air Temp Water Temp Dewpoint Dewpoint Depression Visibility Wind Speed Wind Dir Waves Ship Positions

Dole Ecuador

Last reported at 2018-Feb-18 04:30 UTC. Time now 2018-Feb-18 04:46 UTC.
Position N 26°04' W 080°07'.

Length 179 m; draft 9 m.

Type: Cargo ship. MMSI: 311588000.

Date/timePositionNaut miles runAvg speedWind from/ knotsBaromVisibWave heightAir tempDewpointWater temp
2018-Feb-18 04:30N 26°04' W 080°07'0 0.0
2018-Feb-18 04:00N 26°04' W 080°07'0 0.0
2018-Feb-18 03:30N 26°04' W 080°07'0 0.0
2018-Feb-18 03:00N 26°04' W 080°07'0 0.0
2018-Feb-18 02:30N 26°04' W 080°07'0 0.0
2018-Feb-18 02:00N 26°04' W 080°07'0 0.0
2018-Feb-18 01:30N 26°04' W 080°07'0 0.0
2018-Feb-18 01:00N 26°04' W 080°07'0 0.0
2018-Feb-18 00:30N 26°04' W 080°07'0 0.0
2018-Feb-18 00:00N 26°04' W 080°07'0 0.0
2018-Feb-17 23:30N 26°04' W 080°07'0 0.0
2018-Feb-17 23:00N 26°04' W 080°07'0 0.0
2018-Feb-17 22:30N 26°04' W 080°07'0 0.0
2018-Feb-17 22:00N 26°04' W 080°07'0 0.0
2018-Feb-17 21:30N 26°04' W 080°07'0 0.0
2018-Feb-17 21:00N 26°04' W 080°07'0 0.0
2018-Feb-17 20:30N 26°04' W 080°07'0 0.0
2018-Feb-17 20:00N 26°04' W 080°07'0 0.0
2018-Feb-17 19:30N 26°04' W 080°07'0 0.0
2018-Feb-17 19:00N 26°04' W 080°07'0 0.0
2018-Feb-17 18:30N 26°04' W 080°07'0 0.0
2018-Feb-17 18:00N 26°04' W 080°07'0 0.0
2018-Feb-17 17:30N 26°04' W 080°07'0 0.0
2018-Feb-17 17:00N 26°04' W 080°07'0 0.0
2018-Feb-17 16:30N 26°04' W 080°07'1 2.4
2018-Feb-17 16:00N 26°06' W 080°07'4 8.4
2018-Feb-17 15:30N 26°05' W 080°02'3 5.8
2018-Feb-17 15:01N 26°03' W 080°00'4 7.8
2018-Feb-17 14:30N 26°01' W 079°57'1 2.2
2018-Feb-17 14:00N 25°60' W 079°56'1 2.5
2018-Feb-17 13:30N 25°58' W 079°56'1 2.8
2018-Feb-17 13:00N 25°57' W 079°56'3 6.6
2018-Feb-17 12:31N 25°56' W 079°52'713.5
2018-Feb-17 12:00N 25°55' W 079°45'612.7
2018-Feb-17 11:30N 25°51' W 079°39'917.1
2018-Feb-17 11:00N 25°42' W 079°39'917.0
2018-Feb-17 10:30N 25°34' W 079°39'  
Track history (hours):
 
Tides and Currents Weather Stations Pressure Air Temp Water Temp Dewpoint Dewpoint Depression Visibility Wind Speed Wind Dir Waves Ship Positions

Dole Ecuador

Last reported at 2018-Feb-18 04:30 UTC. Time now 2018-Feb-18 04:46 UTC.
Position N 26°04' W 080°07'.

Length 179 m; draft 9 m.

Type: Cargo ship. MMSI: 311588000.

Date/timePositionNaut miles runAvg speedWind from/ knotsBaromVisibWave heightAir tempDewpointWater temp
2018-Feb-18 04:30N 26°04' W 080°07'0 0.0
2018-Feb-18 04:00N 26°04' W 080°07'0 0.0
2018-Feb-18 03:30N 26°04' W 080°07'0 0.0
2018-Feb-18 03:00N 26°04' W 080°07'0 0.0
2018-Feb-18 02:30N 26°04' W 080°07'0 0.0
2018-Feb-18 02:00N 26°04' W 080°07'0 0.0
2018-Feb-18 01:30N 26°04' W 080°07'0 0.0
2018-Feb-18 01:00N 26°04' W 080°07'0 0.0
2018-Feb-18 00:30N 26°04' W 080°07'0 0.0
2018-Feb-18 00:00N 26°04' W 080°07'0 0.0
2018-Feb-17 23:30N 26°04' W 080°07'0 0.0
2018-Feb-17 23:00N 26°04' W 080°07'0 0.0
2018-Feb-17 22:30N 26°04' W 080°07'0 0.0
2018-Feb-17 22:00N 26°04' W 080°07'0 0.0
2018-Feb-17 21:30N 26°04' W 080°07'0 0.0
2018-Feb-17 21:00N 26°04' W 080°07'0 0.0
2018-Feb-17 20:30N 26°04' W 080°07'0 0.0
2018-Feb-17 20:00N 26°04' W 080°07'0 0.0
2018-Feb-17 19:30N 26°04' W 080°07'0 0.0
2018-Feb-17 19:00N 26°04' W 080°07'0 0.0
2018-Feb-17 18:30N 26°04' W 080°07'0 0.0
2018-Feb-17 18:00N 26°04' W 080°07'0 0.0
2018-Feb-17 17:30N 26°04' W 080°07'0 0.0
2018-Feb-17 17:00N 26°04' W 080°07'0 0.0
2018-Feb-17 16:30N 26°04' W 080°07'1 2.4
2018-Feb-17 16:00N 26°06' W 080°07'4 8.4
2018-Feb-17 15:30N 26°05' W 080°02'3 5.8
2018-Feb-17 15:01N 26°03' W 080°00'4 7.8
2018-Feb-17 14:30N 26°01' W 079°57'1 2.2
2018-Feb-17 14:00N 25°60' W 079°56'1 2.5
2018-Feb-17 13:30N 25°58' W 079°56'1 2.8
2018-Feb-17 13:00N 25°57' W 079°56'3 6.6
2018-Feb-17 12:31N 25°56' W 079°52'713.5
2018-Feb-17 12:00N 25°55' W 079°45'612.7
2018-Feb-17 11:30N 25°51' W 079°39'917.1
2018-Feb-17 11:00N 25°42' W 079°39'917.0
2018-Feb-17 10:30N 25°34' W 079°39'  

Dump ship's entire track history